sensor_id;sensor_type;location;lat;lon;timestamp;pressure;altitude;pressure_sealevel;temperature;humidity
16120;BME280;12670;53.502;10.252;2022-12-07T00:02:48;100838.41;;;4.33;100.00
16120;BME280;12670;53.502;10.252;2022-12-07T00:05:50;100846.13;;;4.43;100.00
16120;BME280;12670;53.502;10.252;2022-12-07T00:08:53;100839.13;;;4.44;100.00
16120;BME280;12670;53.502;10.252;2022-12-07T00:11:56;100830.91;;;4.65;100.00
16120;BME280;12670;53.502;10.252;2022-12-07T00:14:58;100829.56;;;4.38;100.00
16120;BME280;12670;53.502;10.252;2022-12-07T00:18:02;100817.03;;;4.55;100.00
16120;BME280;12670;53.502;10.252;2022-12-07T00:21:07;100808.25;;;4.57;100.00
16120;BME280;12670;53.502;10.252;2022-12-07T00:24:12;100808.63;;;4.35;100.00
16120;BME280;12670;53.502;10.252;2022-12-07T00:27:15;100797.56;;;4.69;100.00
16120;BME280;12670;53.502;10.252;2022-12-07T00:30:17;100792.94;;;4.83;100.00
16120;BME280;12670;53.502;10.252;2022-12-07T00:33:21;100790.31;;;4.83;100.00
16120;BME280;12670;53.502;10.252;2022-12-07T00:36:25;100788.28;;;4.97;100.00
16120;BME280;12670;53.502;10.252;2022-12-07T00:39:28;100775.97;;;5.01;100.00
16120;BME280;12670;53.502;10.252;2022-12-07T00:42:30;100784.69;;;5.04;100.00
16120;BME280;12670;53.502;10.252;2022-12-07T00:45:33;100778.56;;;5.02;100.00
16120;BME280;12670;53.502;10.252;2022-12-07T00:48:38;100776.22;;;4.87;100.00
16120;BME280;12670;53.502;10.252;2022-12-07T00:51:40;100768.13;;;4.98;100.00
16120;BME280;12670;53.502;10.252;2022-12-07T00:54:43;100760.16;;;5.02;100.00
16120;BME280;12670;53.502;10.252;2022-12-07T00:57:46;100751.59;;;4.91;100.00
16120;BME280;12670;53.502;10.252;2022-12-07T01:00:48;100755.97;;;4.92;100.00
16120;BME280;12670;53.502;10.252;2022-12-07T01:03:53;100754.28;;;4.90;100.00
16120;BME280;12670;53.502;10.252;2022-12-07T01:06:56;100740.56;;;4.72;100.00
16120;BME280;12670;53.502;10.252;2022-12-07T01:09:58;100751.56;;;4.94;100.00
16120;BME280;12670;53.502;10.252;2022-12-07T01:13:01;100744.56;;;4.93;100.00
16120;BME280;12670;53.502;10.252;2022-12-07T01:16:05;100742.88;;;4.89;100.00
16120;BME280;12670;53.502;10.252;2022-12-07T01:19:10;100740.94;;;5.00;100.00
16120;BME280;12670;53.502;10.252;2022-12-07T01:22:12;100742.09;;;4.84;100.00
16120;BME280;12670;53.502;10.252;2022-12-07T01:25:15;100731.69;;;4.78;100.00
16120;BME280;12670;53.502;10.252;2022-12-07T01:28:18;100726.56;;;4.72;100.00
16120;BME280;12670;53.502;10.252;2022-12-07T01:31:21;100727.34;;;4.77;100.00
16120;BME280;12670;53.502;10.252;2022-12-07T01:34:26;100730.09;;;4.71;100.00
16120;BME280;12670;53.502;10.252;2022-12-07T01:37:34;100726.75;;;4.61;100.00
16120;BME280;12670;53.502;10.252;2022-12-07T01:40:37;100726.06;;;4.51;100.00
16120;BME280;12670;53.502;10.252;2022-12-07T01:44:17;100722.38;;;4.60;100.00
16120;BME280;12670;53.502;10.252;2022-12-07T01:47:20;100719.63;;;4.68;100.00
16120;BME280;12670;53.502;10.252;2022-12-07T01:50:25;100721.38;;;4.67;100.00
16120;BME280;12670;53.502;10.252;2022-12-07T01:53:30;100722.25;;;4.68;100.00
16120;BME280;12670;53.502;10.252;2022-12-07T01:56:34;100723.13;;;4.67;100.00
16120;BME280;12670;53.502;10.252;2022-12-07T01:59:39;100721.63;;;4.53;100.00
16120;BME280;12670;53.502;10.252;2022-12-07T02:02:44;100719.44;;;4.78;100.00
16120;BME280;12670;53.502;10.252;2022-12-07T02:05:50;100719.47;;;4.77;100.00
16120;BME280;12670;53.502;10.252;2022-12-07T02:08:53;100714.75;;;4.46;100.00
16120;BME280;12670;53.502;10.252;2022-12-07T02:11:56;100709.84;;;4.76;100.00
16120;BME280;12670;53.502;10.252;2022-12-07T02:15:01;100716.75;;;4.80;100.00
16120;BME280;12670;53.502;10.252;2022-12-07T02:18:09;100714.16;;;4.78;100.00
16120;BME280;12670;53.502;10.252;2022-12-07T02:21:17;100706.31;;;4.77;100.00
16120;BME280;12670;53.502;10.252;2022-12-07T02:24:40;100705.00;;;4.53;100.00
16120;BME280;12670;53.502;10.252;2022-12-07T02:27:50;100698.47;;;4.75;100.00
16120;BME280;12670;53.502;10.252;2022-12-07T02:30:59;100699.34;;;4.76;100.00
16120;BME280;12670;53.502;10.252;2022-12-07T02:34:08;100694.81;;;4.82;100.00
16120;BME280;12670;53.502;10.252;2022-12-07T02:37:19;100689.16;;;4.58;100.00
16120;BME280;12670;53.502;10.252;2022-12-07T02:40:28;100687.84;;;4.32;100.00
16120;BME280;12670;53.502;10.252;2022-12-07T02:43:35;100690.41;;;4.37;100.00
16120;BME280;12670;53.502;10.252;2022-12-07T02:46:44;100692.97;;;4.38;100.00
16120;BME280;12670;53.502;10.252;2022-12-07T02:49:49;100690.44;;;4.35;100.00
16120;BME280;12670;53.502;10.252;2022-12-07T02:52:52;100696.63;;;4.31;100.00
16120;BME280;12670;53.502;10.252;2022-12-07T02:55:54;100699.56;;;4.11;100.00
16120;BME280;12670;53.502;10.252;2022-12-07T02:59:04;100693.47;;;4.11;100.00
16120;BME280;12670;53.502;10.252;2022-12-07T03:02:18;100702.84;;;4.25;100.00
16120;BME280;12670;53.502;10.252;2022-12-07T03:05:34;100695.09;;;4.18;100.00
16120;BME280;12670;53.502;10.252;2022-12-07T03:08:49;100701.75;;;4.37;100.00
16120;BME280;12670;53.502;10.252;2022-12-07T03:12:00;100710.69;;;4.27;100.00
16120;BME280;12670;53.502;10.252;2022-12-07T03:15:07;100713.19;;;4.35;100.00
16120;BME280;12670;53.502;10.252;2022-12-07T03:18:16;100710.47;;;4.39;100.00
16120;BME280;12670;53.502;10.252;2022-12-07T03:21:24;100697.94;;;4.55;100.00
16120;BME280;12670;53.502;10.252;2022-12-07T03:24:31;100694.56;;;4.48;100.00
16120;BME280;12670;53.502;10.252;2022-12-07T03:27:39;100692.78;;;4.50;100.00
16120;BME280;12670;53.502;10.252;2022-12-07T03:30:47;100690.00;;;4.60;100.00
16120;BME280;12670;53.502;10.252;2022-12-07T03:33:57;100687.75;;;4.37;100.00
16120;BME280;12670;53.502;10.252;2022-12-07T03:37:05;100684.19;;;4.41;100.00
16120;BME280;12670;53.502;10.252;2022-12-07T03:40:14;100698.06;;;4.49;100.00
16120;BME280;12670;53.502;10.252;2022-12-07T03:43:19;100695.50;;;4.44;100.00
16120;BME280;12670;53.502;10.252;2022-12-07T03:46:29;100698.03;;;4.52;100.00
16120;BME280;12670;53.502;10.252;2022-12-07T03:49:42;100691.47;;;4.25;100.00
16120;BME280;12670;53.502;10.252;2022-12-07T03:52:50;100697.47;;;4.32;100.00
16120;BME280;12670;53.502;10.252;2022-12-07T03:55:56;100704.34;;;4.39;100.00
16120;BME280;12670;53.502;10.252;2022-12-07T03:58:59;100703.66;;;4.29;100.00
16120;BME280;12670;53.502;10.252;2022-12-07T04:02:04;100698.41;;;4.27;100.00
16120;BME280;12670;53.502;10.252;2022-12-07T04:05:10;100698.13;;;4.44;100.00
16120;BME280;12670;53.502;10.252;2022-12-07T04:08:13;100701.88;;;4.31;100.00
16120;BME280;12670;53.502;10.252;2022-12-07T04:11:15;100701.03;;;4.29;100.00
16120;BME280;12670;53.502;10.252;2022-12-07T04:14:18;100702.31;;;4.04;100.00
16120;BME280;12670;53.502;10.252;2022-12-07T04:17:21;100705.72;;;4.09;100.00
16120;BME280;12670;53.502;10.252;2022-12-07T04:20:25;100702.38;;;4.00;100.00
16120;BME280;12670;53.502;10.252;2022-12-07T04:23:27;100711.84;;;4.09;100.00
16120;BME280;12670;53.502;10.252;2022-12-07T04:26:30;100711.31;;;3.87;100.00
16120;BME280;12670;53.502;10.252;2022-12-07T04:29:33;100720.06;;;3.86;100.00
16120;BME280;12670;53.502;10.252;2022-12-07T04:32:35;100712.00;;;3.98;100.00
16120;BME280;12670;53.502;10.252;2022-12-07T04:35:42;100717.84;;;4.16;100.00
16120;BME280;12670;53.502;10.252;2022-12-07T04:38:44;100711.06;;;4.03;100.00
16120;BME280;12670;53.502;10.252;2022-12-07T04:41:47;100718.06;;;4.04;100.00
16120;BME280;12670;53.502;10.252;2022-12-07T04:44:50;100716.38;;;3.98;100.00
16120;BME280;12670;53.502;10.252;2022-12-07T04:47:53;100720.78;;;3.97;100.00
16120;BME280;12670;53.502;10.252;2022-12-07T04:50:57;100722.72;;;3.85;100.00
16120;BME280;12670;53.502;10.252;2022-12-07T04:53:59;100723.59;;;3.85;100.00
16120;BME280;12670;53.502;10.252;2022-12-07T04:57:02;100725.91;;;4.07;100.00
16120;BME280;12670;53.502;10.252;2022-12-07T05:00:06;100723.31;;;4.04;100.00
16120;BME280;12670;53.502;10.252;2022-12-07T05:03:09;100723.50;;;3.91;100.00
16120;BME280;12670;53.502;10.252;2022-12-07T05:06:14;100728.81;;;3.87;100.00
16120;BME280;12670;53.502;10.252;2022-12-07T05:09:17;100713.41;;;3.64;100.00
16120;BME280;12670;53.502;10.252;2022-12-07T05:12:19;100723.59;;;3.85;100.00
16120;BME280;12670;53.502;10.252;2022-12-07T05:15:22;100723.59;;;3.85;100.00
16120;BME280;12670;53.502;10.252;2022-12-07T05:18:24;100724.47;;;3.84;100.00
16120;BME280;12670;53.502;10.252;2022-12-07T05:21:28;100720.13;;;3.83;100.00
16120;BME280;12670;53.502;10.252;2022-12-07T05:24:31;100716.28;;;4.06;100.00
16120;BME280;12670;53.502;10.252;2022-12-07T05:27:34;100718.06;;;4.04;100.00
16120;BME280;12670;53.502;10.252;2022-12-07T05:30:36;100718.22;;;3.94;100.00
16120;BME280;12670;53.502;10.252;2022-12-07T05:33:39;100716.56;;;3.87;100.00
16120;BME280;12670;53.502;10.252;2022-12-07T05:36:43;100711.22;;;3.93;100.00
16120;BME280;12670;53.502;10.252;2022-12-07T05:39:46;100717.09;;;4.11;100.00
16120;BME280;12670;53.502;10.252;2022-12-07T05:42:48;100720.94;;;3.88;100.00
16120;BME280;12670;53.502;10.252;2022-12-07T05:45:51;100725.88;;;4.08;100.00
16120;BME280;12670;53.502;10.252;2022-12-07T05:48:54;100721.38;;;4.15;100.00
16120;BME280;12670;53.502;10.252;2022-12-07T05:51:58;100721.38;;;4.15;100.00
16120;BME280;12670;53.502;10.252;2022-12-07T05:55:00;100719.47;;;4.26;100.00
16120;BME280;12670;53.502;10.252;2022-12-07T05:58:03;100723.81;;;4.28;100.00
16120;BME280;12670;53.502;10.252;2022-12-07T06:01:23;100715.19;;;4.19;100.00
16120;BME280;12670;53.502;10.252;2022-12-07T06:04:27;100717.69;;;4.28;100.00
16120;BME280;12670;53.502;10.252;2022-12-07T06:07:31;100712.59;;;4.16;100.00
16120;BME280;12670;53.502;10.252;2022-12-07T06:10:34;100710.78;;;4.21;100.00
16120;BME280;12670;53.502;10.252;2022-12-07T06:13:37;100709.97;;;4.16;100.00
16120;BME280;12670;53.502;10.252;2022-12-07T06:16:46;100710.88;;;4.15;100.00
16120;BME280;12670;53.502;10.252;2022-12-07T06:19:48;100714.47;;;4.11;100.00
16120;BME280;12670;53.502;10.252;2022-12-07T06:22:52;100711.81;;;4.12;100.00
16120;BME280;12670;53.502;10.252;2022-12-07T06:25:55;100716.13;;;4.15;100.00
16120;BME280;12670;53.502;10.252;2022-12-07T06:28:58;100721.44;;;4.12;100.00
16120;BME280;12670;53.502;10.252;2022-12-07T06:32:00;100708.44;;;4.03;100.00
16120;BME280;12670;53.502;10.252;2022-12-07T06:35:04;100710.94;;;4.10;100.00
16120;BME280;12670;53.502;10.252;2022-12-07T06:38:08;100717.06;;;4.12;100.00
16120;BME280;12670;53.502;10.252;2022-12-07T06:41:11;100712.81;;;4.04;100.00
16120;BME280;12670;53.502;10.252;2022-12-07T06:44:14;100705.91;;;3.96;100.00
16120;BME280;12670;53.502;10.252;2022-12-07T06:47:16;100714.69;;;3.95;100.00
16120;BME280;12670;53.502;10.252;2022-12-07T06:50:39;100709.44;;;3.95;100.00
16120;BME280;12670;53.502;10.252;2022-12-07T06:53:43;100712.28;;;3.82;100.00
16120;BME280;12670;53.502;10.252;2022-12-07T06:56:46;100708.34;;;4.09;100.00
16120;BME280;12670;53.502;10.252;2022-12-07T06:59:48;100711.03;;;4.06;100.00
16120;BME280;12670;53.502;10.252;2022-12-07T07:02:51;100716.31;;;4.03;100.00
16120;BME280;12670;53.502;10.252;2022-12-07T07:05:54;100709.13;;;4.17;100.00
16120;BME280;12670;53.502;10.252;2022-12-07T07:08:58;100711.66;;;4.21;100.00
16120;BME280;12670;53.502;10.252;2022-12-07T07:12:01;100704.06;;;4.05;100.00
16120;BME280;12670;53.502;10.252;2022-12-07T07:15:04;100711.13;;;3.99;100.00
16120;BME280;12670;53.502;10.252;2022-12-07T07:18:07;100714.50;;;4.08;100.00
16120;BME280;12670;53.502;10.252;2022-12-07T07:21:10;100715.00;;;3.76;100.00
16120;BME280;12670;53.502;10.252;2022-12-07T07:24:14;100709.47;;;3.94;100.00
16120;BME280;12670;53.502;10.252;2022-12-07T07:27:16;100723.22;;;4.10;100.00
16120;BME280;12670;53.502;10.252;2022-12-07T07:30:19;100717.34;;;3.92;100.00
16120;BME280;12670;53.502;10.252;2022-12-07T07:33:22;100711.25;;;3.90;100.00
16120;BME280;12670;53.502;10.252;2022-12-07T07:36:25;100714.50;;;4.08;100.00
16120;BME280;12670;53.502;10.252;2022-12-07T07:39:28;100723.22;;;4.10;100.00
16120;BME280;12670;53.502;10.252;2022-12-07T07:42:31;100733.78;;;4.07;100.00
16120;BME280;12670;53.502;10.252;2022-12-07T07:45:34;100734.47;;;4.18;100.00
16120;BME280;12670;53.502;10.252;2022-12-07T07:48:36;100736.66;;;3.90;100.00
16120;BME280;12670;53.502;10.252;2022-12-07T07:51:39;100732.09;;;4.01;100.00
16120;BME280;12670;53.502;10.252;2022-12-07T07:54:43;100741.75;;;4.00;100.00
16120;BME280;12670;53.502;10.252;2022-12-07T07:57:46;100740.53;;;4.23;100.00
16120;BME280;12670;53.502;10.252;2022-12-07T08:00:55;100740.66;;;4.14;100.00
16120;BME280;12670;53.502;10.252;2022-12-07T08:03:57;100746.75;;;4.17;100.00
16120;BME280;12670;53.502;10.252;2022-12-07T08:07:00;100737.19;;;4.10;100.00
16120;BME280;12670;53.502;10.252;2022-12-07T08:10:05;100739.56;;;4.27;100.00
16120;BME280;12670;53.502;10.252;2022-12-07T08:13:08;100731.72;;;4.25;100.00
16120;BME280;12670;53.502;10.252;2022-12-07T08:16:15;100743.84;;;4.34;100.00
16120;BME280;12670;53.502;10.252;2022-12-07T08:19:18;100742.84;;;4.41;100.00
16120;BME280;12670;53.502;10.252;2022-12-07T08:22:21;100744.56;;;4.44;100.00
16120;BME280;12670;53.502;10.252;2022-12-07T08:25:26;100740.66;;;4.14;100.00
16120;BME280;12670;53.502;10.252;2022-12-07T08:28:28;100742.28;;;4.21;100.00
16120;BME280;12670;53.502;10.252;2022-12-07T08:31:31;100736.13;;;4.22;100.00
16120;BME280;12670;53.502;10.252;2022-12-07T08:34:34;100743.47;;;4.01;100.00
16120;BME280;12670;53.502;10.252;2022-12-07T08:37:37;100739.50;;;4.32;100.00
16120;BME280;12670;53.502;10.252;2022-12-07T08:40:41;100743.59;;;4.49;100.00
16120;BME280;12670;53.502;10.252;2022-12-07T08:43:43;100742.81;;;4.43;100.00
16120;BME280;12670;53.502;10.252;2022-12-07T08:46:48;100738.28;;;4.52;100.00
16120;BME280;12670;53.502;10.252;2022-12-07T08:49:53;100742.06;;;4.36;100.00
16120;BME280;12670;53.502;10.252;2022-12-07T08:52:57;100741.81;;;4.51;100.00
16120;BME280;12670;53.502;10.252;2022-12-07T08:56:03;100736.47;;;4.58;100.00
16120;BME280;12670;53.502;10.252;2022-12-07T08:59:06;100744.63;;;4.39;100.00
16120;BME280;12670;53.502;10.252;2022-12-07T09:02:09;100743.78;;;4.37;100.00
16120;BME280;12670;53.502;10.252;2022-12-07T09:05:12;100744.06;;;4.73;100.00
16120;BME280;12670;53.502;10.252;2022-12-07T09:08:17;100749.56;;;4.59;100.00
16120;BME280;12670;53.502;10.252;2022-12-07T09:11:22;100747.78;;;4.60;100.00
16120;BME280;12670;53.502;10.252;2022-12-07T09:14:29;100744.94;;;4.72;100.00
16120;BME280;12670;53.502;10.252;2022-12-07T09:17:32;100739.84;;;4.63;100.00
16120;BME280;12670;53.502;10.252;2022-12-07T09:20:35;100749.84;;;4.93;100.00
16120;BME280;12670;53.502;10.252;2022-12-07T09:23:38;100741.03;;;4.94;100.00
16120;BME280;12670;53.502;10.252;2022-12-07T09:26:42;100746.22;;;4.97;100.00
16120;BME280;12670;53.502;10.252;2022-12-07T09:29:45;100744.25;;;5.08;100.00
16120;BME280;12670;53.502;10.252;2022-12-07T09:32:48;100746.31;;;4.94;100.00
16120;BME280;12670;53.502;10.252;2022-12-07T09:35:51;100738.41;;;4.94;100.00
16120;BME280;12670;53.502;10.252;2022-12-07T09:38:54;100743.28;;;5.14;100.00
16120;BME280;12670;53.502;10.252;2022-12-07T09:41:59;100749.53;;;5.08;100.00
16120;BME280;12670;53.502;10.252;2022-12-07T09:45:06;100745.16;;;5.07;100.00
16120;BME280;12670;53.502;10.252;2022-12-07T09:48:16;100744.25;;;5.08;100.00
16120;BME280;12670;53.502;10.252;2022-12-07T09:51:21;100736.34;;;5.12;100.00
16120;BME280;12670;53.502;10.252;2022-12-07T09:54:26;100742.50;;;5.11;100.00
16120;BME280;12670;53.502;10.252;2022-12-07T09:57:31;100743.78;;;5.33;100.00
16120;BME280;12670;53.502;10.252;2022-12-07T10:00:35;100740.06;;;5.00;100.00
16120;BME280;12670;53.502;10.252;2022-12-07T10:03:40;100744.47;;;4.99;100.00
16120;BME280;12670;53.502;10.252;2022-12-07T10:06:45;100730.69;;;4.87;100.00
16120;BME280;12670;53.502;10.252;2022-12-07T10:09:49;100735.81;;;4.91;100.00
16120;BME280;12670;53.502;10.252;2022-12-07T10:12:58;100732.88;;;5.08;100.00
16120;BME280;12670;53.502;10.252;2022-12-07T10:16:02;100733.69;;;5.12;100.00
16120;BME280;12670;53.502;10.252;2022-12-07T10:19:19;100723.09;;;5.15;100.00
16120;BME280;12670;53.502;10.252;2022-12-07T10:22:22;100726.47;;;5.23;100.00
16120;BME280;12670;53.502;10.252;2022-12-07T10:25:33;100738.38;;;5.39;100.00
16120;BME280;12670;53.502;10.252;2022-12-07T10:28:38;100728.38;;;5.15;100.00
16120;BME280;12670;53.502;10.252;2022-12-07T10:31:43;100728.78;;;5.38;100.00
16120;BME280;12670;53.502;10.252;2022-12-07T10:34:47;100721.47;;;5.11;100.00
16120;BME280;12670;53.502;10.252;2022-12-07T10:38:16;100713.97;;;5.34;100.00
16120;BME280;12670;53.502;10.252;2022-12-07T10:41:19;100717.09;;;5.08;100.00
16120;BME280;12670;53.502;10.252;2022-12-07T10:44:25;100714.16;;;5.25;100.00
16120;BME280;12670;53.502;10.252;2022-12-07T10:47:33;100725.53;;;5.25;100.00
16120;BME280;12670;53.502;10.252;2022-12-07T10:50:49;100721.13;;;5.26;100.00
16120;BME280;12670;53.502;10.252;2022-12-07T10:54:02;100717.44;;;5.36;100.00
16120;BME280;12670;53.502;10.252;2022-12-07T10:57:25;100717.34;;;5.41;100.00
16120;BME280;12670;53.502;10.252;2022-12-07T11:00:37;100715.13;;;5.61;100.00
16120;BME280;12670;53.502;10.252;2022-12-07T11:03:49;100715.63;;;5.38;100.00
16120;BME280;12670;53.502;10.252;2022-12-07T11:07:00;100719.75;;;5.50;100.00
16120;BME280;12670;53.502;10.252;2022-12-07T11:10:10;100712.09;;;5.79;100.00
16120;BME280;12670;53.502;10.252;2022-12-07T11:13:23;100713.47;;;5.97;99.21
16120;BME280;12670;53.502;10.252;2022-12-07T11:16:45;100703.91;;;6.30;98.26
16120;BME280;12670;53.502;10.252;2022-12-07T11:20:02;100707.81;;;5.75;98.70
16120;BME280;12670;53.502;10.252;2022-12-07T11:23:16;100703.56;;;5.68;96.77
16120;BME280;12670;53.502;10.252;2022-12-07T11:26:34;100693.97;;;5.66;96.59
16120;BME280;12670;53.502;10.252;2022-12-07T11:29:59;100697.66;;;5.58;97.14
16120;BME280;12670;53.502;10.252;2022-12-07T11:33:12;100694.03;;;5.62;97.17
16120;BME280;12670;53.502;10.252;2022-12-07T11:36:31;100695.78;;;5.64;98.37
16120;BME280;12670;53.502;10.252;2022-12-07T11:39:40;100691.28;;;5.27;97.91
16120;BME280;12670;53.502;10.252;2022-12-07T11:42:49;100698.31;;;5.26;99.87
16120;BME280;12670;53.502;10.252;2022-12-07T11:45:57;100694.81;;;5.26;98.86
16120;BME280;12670;53.502;10.252;2022-12-07T11:49:07;100693.53;;;5.45;97.88
16120;BME280;12670;53.502;10.252;2022-12-07T11:52:25;100687.94;;;5.60;97.66
16120;BME280;12670;53.502;10.252;2022-12-07T11:55:40;100679.78;;;5.32;97.78
16120;BME280;12670;53.502;10.252;2022-12-07T11:58:48;100679.25;;;5.57;98.19
16120;BME280;12670;53.502;10.252;2022-12-07T12:01:55;100669.75;;;5.50;98.66
16120;BME280;12670;53.502;10.252;2022-12-07T12:05:12;100678.50;;;5.52;96.22
16120;BME280;12670;53.502;10.252;2022-12-07T12:08:19;100668.13;;;5.44;96.30
16120;BME280;12670;53.502;10.252;2022-12-07T12:11:56;100672.06;;;5.65;96.26
16120;BME280;12670;53.502;10.252;2022-12-07T12:15:34;100665.25;;;5.55;96.71
16120;BME280;12670;53.502;10.252;2022-12-07T12:18:53;100672.16;;;5.60;94.91
16120;BME280;12670;53.502;10.252;2022-12-07T12:22:06;100673.88;;;5.61;95.09
16120;BME280;12670;53.502;10.252;2022-12-07T12:25:20;100660.28;;;5.81;93.38
16120;BME280;12670;53.502;10.252;2022-12-07T12:28:28;100667.63;;;5.67;92.07
16120;BME280;12670;53.502;10.252;2022-12-07T12:31:35;100661.34;;;5.73;92.09
16120;BME280;12670;53.502;10.252;2022-12-07T12:34:41;100661.81;;;5.90;92.36
16120;BME280;12670;53.502;10.252;2022-12-07T12:37:53;100655.03;;;5.80;90.63
16120;BME280;12670;53.502;10.252;2022-12-07T12:40:57;100655.84;;;5.83;92.99
16120;BME280;12670;53.502;10.252;2022-12-07T12:43:59;100659.28;;;5.87;90.31
16120;BME280;12670;53.502;10.252;2022-12-07T12:47:03;100655.69;;;5.89;90.70
16120;BME280;12670;53.502;10.252;2022-12-07T12:50:18;100653.09;;;5.88;89.54
16120;BME280;12670;53.502;10.252;2022-12-07T12:53:24;100654.34;;;6.10;88.66
16120;BME280;12670;53.502;10.252;2022-12-07T12:56:36;100667.91;;;6.63;86.42
16120;BME280;12670;53.502;10.252;2022-12-07T12:59:56;100663.88;;;6.83;83.26
16120;BME280;12670;53.502;10.252;2022-12-07T13:02:59;100656.94;;;6.46;82.01
16120;BME280;12670;53.502;10.252;2022-12-07T13:06:19;100661.44;;;6.43;83.27
16120;BME280;12670;53.502;10.252;2022-12-07T13:09:25;100659.53;;;6.48;80.33
16120;BME280;12670;53.502;10.252;2022-12-07T13:12:30;100657.66;;;6.19;81.04
16120;BME280;12670;53.502;10.252;2022-12-07T13:15:36;100652.16;;;6.28;81.39
16120;BME280;12670;53.502;10.252;2022-12-07T13:18:39;100658.00;;;6.05;79.98
16120;BME280;12670;53.502;10.252;2022-12-07T13:21:43;100659.91;;;6.34;80.25
16120;BME280;12670;53.502;10.252;2022-12-07T13:24:48;100655.88;;;6.19;79.46
16120;BME280;12670;53.502;10.252;2022-12-07T13:27:55;100650.34;;;6.30;79.76
16120;BME280;12670;53.502;10.252;2022-12-07T13:31:23;100661.06;;;5.86;76.97
16120;BME280;12670;53.502;10.252;2022-12-07T13:34:31;100665.56;;;5.81;77.55
16120;BME280;12670;53.502;10.252;2022-12-07T13:37:34;100669.25;;;5.73;76.89
16120;BME280;12670;53.502;10.252;2022-12-07T13:40:40;100667.00;;;5.56;79.41
16120;BME280;12670;53.502;10.252;2022-12-07T13:43:45;100669.34;;;5.70;77.90
16120;BME280;12670;53.502;10.252;2022-12-07T13:47:00;100676.84;;;5.85;75.05
16120;BME280;12670;53.502;10.252;2022-12-07T13:50:22;100677.72;;;5.87;76.35
16120;BME280;12670;53.502;10.252;2022-12-07T13:53:25;100674.38;;;5.79;74.31
16120;BME280;12670;53.502;10.252;2022-12-07T13:56:34;100683.63;;;5.98;76.39
16120;BME280;12670;53.502;10.252;2022-12-07T13:59:38;100683.63;;;5.98;75.34
16120;BME280;12670;53.502;10.252;2022-12-07T14:02:54;100683.84;;;5.87;74.09
16120;BME280;12670;53.502;10.252;2022-12-07T14:06:23;100687.13;;;5.58;73.87
16120;BME280;12670;53.502;10.252;2022-12-07T14:09:29;100685.84;;;5.76;71.81
16120;BME280;12670;53.502;10.252;2022-12-07T14:12:36;100691.56;;;5.55;73.44
16120;BME280;12670;53.502;10.252;2022-12-07T14:15:39;100679.50;;;5.85;71.87
16120;BME280;12670;53.502;10.252;2022-12-07T14:18:43;100674.31;;;5.82;73.86
16120;BME280;12670;53.502;10.252;2022-12-07T14:21:46;100676.03;;;5.83;74.07
16120;BME280;12670;53.502;10.252;2022-12-07T14:24:49;100672.34;;;5.92;74.84
16120;BME280;12670;53.502;10.252;2022-12-07T14:27:56;100674.97;;;5.90;76.16
16120;BME280;12670;53.502;10.252;2022-12-07T14:31:01;100674.84;;;5.59;71.16
16120;BME280;12670;53.502;10.252;2022-12-07T14:34:04;100674.59;;;5.70;73.52
16120;BME280;12670;53.502;10.252;2022-12-07T14:37:07;100675.88;;;5.50;70.69
16120;BME280;12670;53.502;10.252;2022-12-07T14:40:14;100681.06;;;5.55;68.56
16120;BME280;12670;53.502;10.252;2022-12-07T14:43:19;100683.38;;;5.69;71.30
16120;BME280;12670;53.502;10.252;2022-12-07T14:46:22;100685.19;;;5.67;73.99
16120;BME280;12670;53.502;10.252;2022-12-07T14:49:25;100675.41;;;5.72;74.98
16120;BME280;12670;53.502;10.252;2022-12-07T14:52:35;100676.53;;;5.61;71.62
16120;BME280;12670;53.502;10.252;2022-12-07T14:55:58;100685.25;;;5.64;74.65
16120;BME280;12670;53.502;10.252;2022-12-07T14:59:02;100683.72;;;5.53;73.68
16120;BME280;12670;53.502;10.252;2022-12-07T15:02:06;100680.31;;;5.48;78.27
16120;BME280;12670;53.502;10.252;2022-12-07T15:05:08;100677.88;;;5.41;78.95
16120;BME280;12670;53.502;10.252;2022-12-07T15:08:17;100685.84;;;5.36;79.55
16120;BME280;12670;53.502;10.252;2022-12-07T15:11:19;100681.03;;;5.15;80.85
16120;BME280;12670;53.502;10.252;2022-12-07T15:14:24;100679.44;;;5.07;83.54
16120;BME280;12670;53.502;10.252;2022-12-07T15:17:27;100682.06;;;5.07;82.52
16120;BME280;12670;53.502;10.252;2022-12-07T15:20:33;100678.72;;;4.99;82.29
16120;BME280;12670;53.502;10.252;2022-12-07T15:23:35;100682.31;;;4.95;82.08
16120;BME280;12670;53.502;10.252;2022-12-07T15:26:39;100679.16;;;4.76;81.12
16120;BME280;12670;53.502;10.252;2022-12-07T15:29:43;100682.44;;;4.89;78.12
16120;BME280;12670;53.502;10.252;2022-12-07T15:32:48;100680.47;;;5.00;76.34
16120;BME280;12670;53.502;10.252;2022-12-07T15:35:51;100684.53;;;4.70;74.09
16120;BME280;12670;53.502;10.252;2022-12-07T15:38:54;100682.16;;;4.58;74.76
16120;BME280;12670;53.502;10.252;2022-12-07T15:42:15;100682.59;;;4.80;77.70
16120;BME280;12670;53.502;10.252;2022-12-07T15:45:19;100686.81;;;4.89;73.81
16120;BME280;12670;53.502;10.252;2022-12-07T15:48:21;100689.19;;;4.54;72.96
16120;BME280;12670;53.502;10.252;2022-12-07T15:51:29;100683.94;;;4.54;71.91
16120;BME280;12670;53.502;10.252;2022-12-07T15:54:33;100676.66;;;4.69;73.07
16120;BME280;12670;53.502;10.252;2022-12-07T15:57:37;100688.69;;;4.82;74.63
16120;BME280;12670;53.502;10.252;2022-12-07T16:00:41;100676.50;;;4.78;75.51
16120;BME280;12670;53.502;10.252;2022-12-07T16:03:45;100676.59;;;4.73;75.81
16120;BME280;12670;53.502;10.252;2022-12-07T16:06:48;100668.19;;;4.54;76.68